createdAt,value
2023-11-24T00:00:12.620Z,4.50
2023-11-24T00:04:21.723Z,1.90
2023-11-24T00:07:54.198Z,2.20
2023-11-24T00:11:15.600Z,2.40
2023-11-24T00:14:57.272Z,1.90
2023-11-24T00:18:20.420Z,3.10
2023-11-24T00:21:59.371Z,2.30
2023-11-24T00:25:48.502Z,15.20
2023-11-24T00:29:37.922Z,2.60
2023-11-24T00:33:12.606Z,4.00
2023-11-24T00:36:54.473Z,2.00
2023-11-24T00:40:43.751Z,2.70
2023-11-24T00:44:25.530Z,3.00
2023-11-24T00:47:27.235Z,3.80
2023-11-24T00:51:06.062Z,2.00
2023-11-24T00:54:30.021Z,1.30
2023-11-24T00:58:19.658Z,3.70
2023-11-24T01:02:01.323Z,4.20
2023-11-24T01:05:51.158Z,4.00
2023-11-24T01:09:40.548Z,3.40
2023-11-24T01:13:29.589Z,3.90
2023-11-24T01:17:11.281Z,2.50
2023-11-24T01:20:45.886Z,3.70
2023-11-24T01:24:35.217Z,3.20
2023-11-24T01:28:06.795Z,3.70
2023-11-24T01:31:22.902Z,3.00
2023-11-24T01:34:55.914Z,4.40
2023-11-24T01:38:24.928Z,3.70
2023-11-24T01:42:14.206Z,3.80
2023-11-24T01:46:01.735Z,5.20
2023-11-24T01:49:52.401Z,7.20
2023-11-24T01:53:40.117Z,2.40
2023-11-24T01:57:11.988Z,2.10
2023-11-24T02:00:46.886Z,1.50
2023-11-24T02:04:10.011Z,2.00
2023-11-24T02:07:51.849Z,2.30
2023-11-24T02:11:40.316Z,2.10
2023-11-24T02:15:19.233Z,3.20
2023-11-24T02:19:09.308Z,2.20
2023-11-24T02:22:58.340Z,1.30
2023-11-24T02:26:47.424Z,3.90
2023-11-24T02:30:36.688Z,2.20
2023-11-24T02:34:25.831Z,1.00
2023-11-24T02:37:58.279Z,4.50
2023-11-24T02:41:47.308Z,2.40
2023-11-24T02:45:28.893Z,2.60
2023-11-24T02:49:02.588Z,2.10
2023-11-24T02:56:19.215Z,3.60
2023-11-24T03:00:08.320Z,2.50
2023-11-24T03:03:50.076Z,3.30
2023-11-24T03:07:41.991Z,5.40
2023-11-24T03:11:31.198Z,6.20
2023-11-24T03:15:07.965Z,4.00
2023-11-24T03:18:49.617Z,4.30
2023-11-24T03:22:08.708Z,2.80
2023-11-24T03:25:31.603Z,3.20
2023-11-24T03:29:20.701Z,2.00
2023-11-24T03:33:10.066Z,4.10
2023-11-24T03:36:37.343Z,4.10
2023-11-24T03:40:19.976Z,5.70
2023-11-24T03:44:09.008Z,5.00
2023-11-24T03:47:58.159Z,5.40
2023-11-24T03:52:32.327Z,4.90
2023-11-24T03:55:53.911Z,5.40
2023-11-24T03:59:41.771Z,3.50
2023-11-24T04:03:13.415Z,3.70
2023-11-24T04:07:01.694Z,3.20
2023-11-24T04:10:25.220Z,6.10
2023-11-24T04:14:13.263Z,4.50
2023-11-24T04:18:02.547Z,9.20
2023-11-24T04:21:51.813Z,6.90
2023-11-24T04:25:40.916Z,18.80
2023-11-24T04:29:29.915Z,16.40
2023-11-24T04:33:19.023Z,19.00
2023-11-24T04:37:01.997Z,19.10
2023-11-24T04:40:51.139Z,14.10
2023-11-24T04:44:20.518Z,14.40
2023-11-24T04:47:52.109Z,17.40
2023-11-24T04:51:41.197Z,13.20
2023-11-24T04:55:30.276Z,19.80
2023-11-24T04:59:18.398Z,15.40
2023-11-24T05:02:52.309Z,24.30
2023-11-24T05:06:41.411Z,21.30
2023-11-24T05:09:52.877Z,19.20
2023-11-24T05:13:25.143Z,20.70
2023-11-24T05:16:57.459Z,29.30
2023-11-24T05:20:25.821Z,21.70
2023-11-24T05:23:58.456Z,30.90
2023-11-24T05:27:35.958Z,28.40
2023-11-24T05:31:05.061Z,58.40
2023-11-24T05:34:54.228Z,53.10
2023-11-24T05:38:28.638Z,52.10
2023-11-24T05:42:17.486Z,52.50
2023-11-24T05:46:07.135Z,28.30
2023-11-24T05:49:47.553Z,22.20
2023-11-24T05:53:00.178Z,21.30
2023-11-24T05:56:49.500Z,27.40
2023-11-24T06:00:08.656Z,28.00
2023-11-24T06:03:57.943Z,20.10
2023-11-24T06:07:56.368Z,16.50
2023-11-24T06:11:57.794Z,10.80
2023-11-24T06:16:09.685Z,11.40
2023-11-24T06:19:58.787Z,7.10
2023-11-24T06:22:48.875Z,3.80
2023-11-24T06:26:38.038Z,11.60
2023-11-24T06:30:27.690Z,8.40
2023-11-24T06:34:16.961Z,4.80
2023-11-24T06:38:07.356Z,14.00
2023-11-24T06:41:32.179Z,10.80
2023-11-24T06:45:09.703Z,16.00
2023-11-24T06:48:38.768Z,11.30
2023-11-24T06:52:08.145Z,8.70
2023-11-24T06:55:51.314Z,8.60
2023-11-24T06:59:41.090Z,9.80
2023-11-24T07:03:29.729Z,11.80
2023-11-24T07:06:53.428Z,8.30
2023-11-24T07:10:50.648Z,8.00
2023-11-24T07:14:25.852Z,10.00
2023-11-24T07:19:33.805Z,7.40
2023-11-24T07:22:30.810Z,7.80
2023-11-24T07:26:20.968Z,6.40
2023-11-24T07:30:10.861Z,22.50
2023-11-24T07:34:02.591Z,13.80
2023-11-24T07:37:41.963Z,8.80
2023-11-24T07:41:25.121Z,6.60
2023-11-24T07:45:14.466Z,7.70
2023-11-24T07:49:03.595Z,8.80
2023-11-24T07:52:37.262Z,8.30
2023-11-24T07:56:19.905Z,6.00
2023-11-24T08:00:01.438Z,6.80
2023-11-24T08:04:37.727Z,10.80
2023-11-24T08:08:02.164Z,10.90
2023-11-24T08:11:23.424Z,5.70
2023-11-24T08:16:11.728Z,6.90
2023-11-24T08:19:13.881Z,5.80
2023-11-24T08:22:35.048Z,6.30
2023-11-24T08:25:51.572Z,6.60
2023-11-24T08:28:57.919Z,6.00
2023-11-24T08:31:41.913Z,8.50
2023-11-24T08:34:25.949Z,6.40
2023-11-24T08:37:11.192Z,7.70
2023-11-24T08:40:12.273Z,7.00
2023-11-24T08:43:24.741Z,8.70
2023-11-24T08:46:33.877Z,6.10
2023-11-24T08:49:33.557Z,7.30
2023-11-24T08:53:18.826Z,5.90
2023-11-24T08:57:39.693Z,7.90
2023-11-24T09:00:58.253Z,10.00
2023-11-24T09:03:58.340Z,13.40
2023-11-24T09:07:28.344Z,7.90
2023-11-24T09:09:57.577Z,11.20
2023-11-24T09:12:40.911Z,11.80
2023-11-24T09:15:49.242Z,16.30
2023-11-24T09:19:15.367Z,32.50
2023-11-24T09:22:23.037Z,16.70
2023-11-24T09:26:16.572Z,13.20
2023-11-24T09:29:39.034Z,9.40
2023-11-24T09:33:18.490Z,13.70
2023-11-24T09:36:37.006Z,27.00
2023-11-24T09:39:33.715Z,19.60
2023-11-24T09:43:03.848Z,12.60
2023-11-24T09:46:51.226Z,17.20
2023-11-24T09:50:22.806Z,17.50
2023-11-24T09:54:14.464Z,18.20
2023-11-24T09:57:13.021Z,21.70
2023-11-24T09:59:57.383Z,15.50
2023-11-24T10:03:49.618Z,16.20
2023-11-24T10:07:32.841Z,16.10
2023-11-24T10:11:01.076Z,5.20
2023-11-24T10:14:32.225Z,5.80
2023-11-24T10:17:36.200Z,4.30
2023-11-24T10:21:33.256Z,8.10
2023-11-24T10:24:55.316Z,8.20
2023-11-24T10:27:51.247Z,4.30
2023-11-24T10:31:11.275Z,4.80
2023-11-24T10:34:43.719Z,4.10
2023-11-24T10:38:31.721Z,12.60
2023-11-24T10:42:01.825Z,5.50
2023-11-24T10:45:22.372Z,4.10
2023-11-24T10:49:00.898Z,5.90
2023-11-24T10:53:00.082Z,6.00
2023-11-24T10:56:34.741Z,8.90
2023-11-24T11:00:22.518Z,12.10
2023-11-24T11:04:12.581Z,12.80
2023-11-24T11:08:04.090Z,11.30
2023-11-24T11:12:05.200Z,11.40
2023-11-24T11:15:54.389Z,10.80
2023-11-24T11:19:43.540Z,11.70
2023-11-24T11:23:24.473Z,14.70
2023-11-24T11:27:25.595Z,16.80
2023-11-24T11:31:13.899Z,20.10
2023-11-24T11:35:12.072Z,25.60
2023-11-24T11:39:19.186Z,29.60
2023-11-24T11:43:08.003Z,17.00
2023-11-24T11:47:00.623Z,16.00
2023-11-24T11:50:29.506Z,12.10
2023-11-24T11:54:06.138Z,14.60
2023-11-24T11:57:55.605Z,21.90
2023-11-24T12:01:43.707Z,13.10
2023-11-24T12:05:33.145Z,14.50
2023-11-24T12:09:25.428Z,18.90
2023-11-24T12:13:14.525Z,15.90
2023-11-24T12:17:03.693Z,16.90
2023-11-24T12:20:52.882Z,19.90
2023-11-24T12:24:42.098Z,18.10
2023-11-24T12:28:31.254Z,7.60
2023-11-24T12:32:23.031Z,12.60
2023-11-24T12:36:05.726Z,8.30
2023-11-24T12:39:54.780Z,5.80
2023-11-24T12:43:09.254Z,7.10
2023-11-24T12:47:01.461Z,8.40
2023-11-24T12:51:05.721Z,5.00
2023-11-24T12:54:47.495Z,5.10
2023-11-24T12:58:16.434Z,5.90
2023-11-24T13:02:07.168Z,6.30
2023-11-24T13:09:19.858Z,4.00
2023-11-24T13:13:09.058Z,5.30
2023-11-24T13:16:50.837Z,5.80
2023-11-24T13:20:34.204Z,5.30
2023-11-24T13:24:24.410Z,8.90
2023-11-24T13:28:13.787Z,4.50
2023-11-24T13:32:02.577Z,3.70
2023-11-24T13:35:50.764Z,1.60
2023-11-24T13:39:45.928Z,2.10
2023-11-24T13:43:27.813Z,3.50
2023-11-24T13:47:16.954Z,2.00
2023-11-24T13:50:38.534Z,2.90
2023-11-24T13:54:20.062Z,2.90
2023-11-24T13:58:07.896Z,4.10
2023-11-24T14:01:57.104Z,36.60
2023-11-24T14:05:46.350Z,11.00
2023-11-24T14:09:41.473Z,3.30
2023-11-24T14:13:20.520Z,4.30
2023-11-24T14:16:52.000Z,5.10
2023-11-24T14:20:41.220Z,3.00
2023-11-24T14:24:30.307Z,2.90
2023-11-24T14:28:08.108Z,2.50
2023-11-24T14:31:57.045Z,3.90
2023-11-24T14:35:45.977Z,4.20
2023-11-24T14:39:23.752Z,2.10
2023-11-24T14:43:12.816Z,3.10
2023-11-24T14:46:51.258Z,2.40
2023-11-24T14:50:22.910Z,2.50
2023-11-24T14:53:59.389Z,3.40
2023-11-24T14:57:48.066Z,4.70
2023-11-24T15:01:31.055Z,4.40
2023-11-24T15:05:20.085Z,2.90
2023-11-24T15:09:12.136Z,1.60
2023-11-24T15:12:59.574Z,2.10
2023-11-24T15:16:48.754Z,2.00
2023-11-24T15:20:37.405Z,2.40
2023-11-24T15:24:26.315Z,2.90
2023-11-24T15:28:19.347Z,4.60
2023-11-24T15:32:06.788Z,7.30
2023-11-24T15:35:56.093Z,5.50
2023-11-24T15:40:00.436Z,5.30
2023-11-24T15:42:55.442Z,6.70
2023-11-24T15:46:36.753Z,5.50
2023-11-24T15:50:25.697Z,7.20
2023-11-24T15:54:14.745Z,6.80
2023-11-24T15:58:03.942Z,6.30
2023-11-24T16:01:38.065Z,7.00
2023-11-24T16:05:07.245Z,4.60
2023-11-24T16:08:59.022Z,8.40
2023-11-24T16:12:40.563Z,12.70
2023-11-24T16:16:29.753Z,15.90
2023-11-24T16:20:16.420Z,18.50
2023-11-24T16:24:05.618Z,22.80
2023-11-24T16:27:55.087Z,25.20
2023-11-24T16:31:44.071Z,13.30
2023-11-24T16:35:33.277Z,11.80
2023-11-24T16:39:22.319Z,19.20
2023-11-24T16:43:11.344Z,24.30
2023-11-24T16:47:00.617Z,15.70
2023-11-24T16:50:49.802Z,17.90
2023-11-24T16:54:31.782Z,9.10
2023-11-24T16:58:20.826Z,15.40
2023-11-24T17:01:17.678Z,15.70
2023-11-24T17:04:59.719Z,9.90
2023-11-24T17:08:48.788Z,7.30
2023-11-24T17:12:37.738Z,10.60
2023-11-24T17:16:20.049Z,13.50
2023-11-24T17:20:09.111Z,12.30
2023-11-24T17:23:58.231Z,10.50
2023-11-24T17:27:47.216Z,10.30
2023-11-24T17:31:35.278Z,9.30
2023-11-24T17:35:24.279Z,11.00
2023-11-24T17:39:13.350Z,12.90
2023-11-24T17:43:01.395Z,20.30
2023-11-24T17:46:40.814Z,16.40
2023-11-24T17:50:30.058Z,18.40
2023-11-24T17:54:13.063Z,22.00
2023-11-24T17:58:02.076Z,12.40
2023-11-24T18:01:51.445Z,21.90
2023-11-24T18:05:40.566Z,19.90
2023-11-24T18:09:22.901Z,17.40
2023-11-24T18:13:02.394Z,25.20
2023-11-24T18:16:44.026Z,13.00
2023-11-24T18:20:25.568Z,7.70
2023-11-24T18:24:14.521Z,14.30
2023-11-24T18:28:03.337Z,31.10
2023-11-24T18:31:44.820Z,9.40
2023-11-24T18:35:23.788Z,8.90
2023-11-24T18:39:05.635Z,11.00
2023-11-24T18:42:47.723Z,10.20
2023-11-24T18:46:36.804Z,20.70
2023-11-24T18:50:24.769Z,10.10
2023-11-24T18:54:13.854Z,13.50
2023-11-24T18:57:55.215Z,8.80
2023-11-24T19:01:44.212Z,15.70
2023-11-24T19:05:33.424Z,16.50
2023-11-24T19:09:22.376Z,21.90
2023-11-24T19:13:12.278Z,18.80
2023-11-24T19:17:01.301Z,13.90
2023-11-24T19:20:50.501Z,15.30
2023-11-24T19:24:39.293Z,18.20
2023-11-24T19:28:29.062Z,12.30
2023-11-24T19:32:11.173Z,15.10
2023-11-24T19:35:53.110Z,17.40
2023-11-24T19:39:42.198Z,27.40
2023-11-24T19:43:29.762Z,30.80
2023-11-24T19:47:17.974Z,22.70
2023-11-24T19:51:07.183Z,29.80
2023-11-24T19:55:50.349Z,28.40
2023-11-24T19:59:05.010Z,27.20
2023-11-24T20:02:54.059Z,21.10
2023-11-24T20:06:32.238Z,18.40
2023-11-24T20:10:21.324Z,21.10
2023-11-24T20:14:02.877Z,16.30
2023-11-24T20:17:52.176Z,19.90
2023-11-24T20:21:41.201Z,21.50
2023-11-24T20:25:24.152Z,22.20
2023-11-24T20:29:13.241Z,20.50
2023-11-24T20:32:56.098Z,22.80
2023-11-24T20:36:45.140Z,21.30
2023-11-24T20:40:33.233Z,21.70
2023-11-24T20:44:14.692Z,33.50
2023-11-24T20:47:57.572Z,30.30
2023-11-24T20:51:46.623Z,52.20
2023-11-24T20:55:20.984Z,26.40
2023-11-24T20:59:10.089Z,24.00
2023-11-24T21:02:59.219Z,22.30
2023-11-24T21:06:48.322Z,26.70
2023-11-24T21:10:37.280Z,22.40
2023-11-24T21:14:26.433Z,23.30
2023-11-24T21:18:08.667Z,15.10
2023-11-24T21:21:57.140Z,20.10
2023-11-24T21:25:46.307Z,14.90
2023-11-24T21:29:35.262Z,32.10
2023-11-24T21:33:24.214Z,24.50
2023-11-24T21:37:13.292Z,21.50
2023-11-24T21:41:02.450Z,18.10
2023-11-24T21:44:53.325Z,22.80
2023-11-24T21:48:35.542Z,25.10
2023-11-24T21:52:24.257Z,22.30
2023-11-24T21:56:06.530Z,24.20
2023-11-24T21:59:55.652Z,28.80
2023-11-24T22:03:47.551Z,25.30
2023-11-24T22:07:36.535Z,24.20
2023-11-24T22:11:25.655Z,28.50
2023-11-24T22:15:18.348Z,32.70
2023-11-24T22:19:10.242Z,24.80
2023-11-24T22:22:58.276Z,17.00
2023-11-24T22:26:48.550Z,18.70
2023-11-24T22:30:37.793Z,22.30
2023-11-24T22:34:26.884Z,17.60
2023-11-24T22:38:08.665Z,11.80
2023-11-24T22:41:57.831Z,15.90
2023-11-24T22:45:40.607Z,16.20
2023-11-24T22:49:28.489Z,14.60
2023-11-24T22:53:09.842Z,14.60
2023-11-24T22:56:58.835Z,17.40
2023-11-24T23:00:56.965Z,18.20
2023-11-24T23:04:46.612Z,14.40
2023-11-24T23:08:35.721Z,17.60
2023-11-24T23:12:25.032Z,20.40
2023-11-24T23:16:05.462Z,21.00
2023-11-24T23:19:54.459Z,12.60
2023-11-24T23:23:43.487Z,13.70
2023-11-24T23:27:32.658Z,13.70
2023-11-24T23:31:24.812Z,14.20
2023-11-24T23:35:15.800Z,12.90
2023-11-24T23:39:03.636Z,8.70
2023-11-24T23:42:55.632Z,9.20
2023-11-24T23:46:44.833Z,9.10
2023-11-24T23:50:35.016Z,14.20
2023-11-24T23:54:24.175Z,9.90
2023-11-24T23:58:13.228Z,10.80
